Marwayne, Canada
Current Conditions -  °F | °C
As of 4:00 AM on Saturday 20 Dec 2014 (Local Time) from CYLL Reporting Station
Overcast Overcast  
Wind Chill: 16°   Ceiling: 7000
Heat Index: 16°   Visibility: 7mi
Dew Point: 14°   Wind: 2mph
Humidity: 93%   Direction: NA
Pressure: 29.7"   Gusts: NA
Location:  53.52°N, 110.33°W
Report Text: CYLL 201100Z AUTO VRB02KT 7SM FEW026 SCT060 BKN070 OVC082 M09/M10 A2970 RMK SLP106
Loading
Personal Weather Stations






























Interactive Weather Map New forecast layout! Learn more

10-Day Weather Forecast

Advertisements
Track Severe Weather on mobile